sensor_id;sensor_type;location;lat;lon;timestamp;pressure;altitude;pressure_sealevel;temperature;humidity
21011;BME280;10663;42.714;23.274;2023-05-20T00:01:16;95085.72;;;16.58;63.00
21011;BME280;10663;42.714;23.274;2023-05-20T00:02:47;95081.91;;;16.64;63.58
21011;BME280;10663;42.714;23.274;2023-05-20T00:04:18;95074.13;;;16.81;62.68
21011;BME280;10663;42.714;23.274;2023-05-20T00:05:48;95080.41;;;16.39;63.68
21011;BME280;10663;42.714;23.274;2023-05-20T00:07:20;95080.06;;;16.27;63.89
21011;BME280;10663;42.714;23.274;2023-05-20T00:08:50;95085.69;;;16.26;64.27
21011;BME280;10663;42.714;23.274;2023-05-20T00:10:21;95080.66;;;16.24;64.00
21011;BME280;10663;42.714;23.274;2023-05-20T00:11:52;95085.13;;;16.29;63.69
21011;BME280;10663;42.714;23.274;2023-05-20T00:13:23;95079.78;;;16.29;64.29
21011;BME280;10663;42.714;23.274;2023-05-20T00:14:54;95074.50;;;16.24;63.96
21011;BME280;10663;42.714;23.274;2023-05-20T00:16:25;95076.88;;;16.25;63.79
21011;BME280;10663;42.714;23.274;2023-05-20T00:17:56;95069.41;;;16.08;64.31
21011;BME280;10663;42.714;23.274;2023-05-20T00:19:27;95074.78;;;15.85;64.95
21011;BME280;10663;42.714;23.274;2023-05-20T00:20:58;95066.63;;;15.95;64.45
21011;BME280;10663;42.714;23.274;2023-05-20T00:22:28;95065.94;;;16.08;64.29
21011;BME280;10663;42.714;23.274;2023-05-20T00:23:59;95066.88;;;16.17;63.85
21011;BME280;10663;42.714;23.274;2023-05-20T00:25:31;95057.84;;;15.94;64.45
21011;BME280;10663;42.714;23.274;2023-05-20T00:27:02;95064.28;;;15.75;65.11
21011;BME280;10663;42.714;23.274;2023-05-20T00:28:33;95062.22;;;16.04;64.25
21011;BME280;10663;42.714;23.274;2023-05-20T00:30:04;95065.50;;;16.20;63.51
21011;BME280;10663;42.714;23.274;2023-05-20T00:31:38;95057.47;;;16.20;63.64
21011;BME280;10663;42.714;23.274;2023-05-20T00:33:09;95050.84;;;15.80;64.67
21011;BME280;10663;42.714;23.274;2023-05-20T00:34:42;95051.91;;;15.97;64.46
21011;BME280;10663;42.714;23.274;2023-05-20T00:36:13;95053.09;;;15.91;64.16
21011;BME280;10663;42.714;23.274;2023-05-20T00:37:44;95055.81;;;15.86;64.79
21011;BME280;10663;42.714;23.274;2023-05-20T00:39:15;95050.81;;;16.17;63.36
21011;BME280;10663;42.714;23.274;2023-05-20T00:40:45;95054.81;;;16.52;62.10
21011;BME280;10663;42.714;23.274;2023-05-20T00:42:26;95055.47;;;16.63;62.22
21011;BME280;10663;42.714;23.274;2023-05-20T00:43:58;95054.56;;;16.67;61.70
21011;BME280;10663;42.714;23.274;2023-05-20T00:45:29;95062.16;;;16.60;61.70
21011;BME280;10663;42.714;23.274;2023-05-20T00:47:01;95054.09;;;16.46;61.94
21011;BME280;10663;42.714;23.274;2023-05-20T00:48:38;95049.25;;;16.48;62.20
21011;BME280;10663;42.714;23.274;2023-05-20T00:50:10;95050.03;;;16.49;61.78
21011;BME280;10663;42.714;23.274;2023-05-20T00:51:43;95046.16;;;16.41;61.83
21011;BME280;10663;42.714;23.274;2023-05-20T00:53:16;95051.88;;;16.35;61.92
21011;BME280;10663;42.714;23.274;2023-05-20T00:54:51;95050.81;;;16.36;61.79
21011;BME280;10663;42.714;23.274;2023-05-20T00:56:22;95051.75;;;16.26;62.05
21011;BME280;10663;42.714;23.274;2023-05-20T00:57:53;95047.66;;;16.15;63.02
21011;BME280;10663;42.714;23.274;2023-05-20T00:59:25;95046.97;;;16.23;62.72
21011;BME280;10663;42.714;23.274;2023-05-20T01:00:56;95053.88;;;16.11;63.58
21011;BME280;10663;42.714;23.274;2023-05-20T01:02:27;95044.69;;;16.17;63.38
21011;BME280;10663;42.714;23.274;2023-05-20T01:03:59;95041.72;;;16.18;63.78
21011;BME280;10663;42.714;23.274;2023-05-20T01:05:30;95042.25;;;16.20;63.54
21011;BME280;10663;42.714;23.274;2023-05-20T01:07:05;95038.03;;;16.14;63.35
21011;BME280;10663;42.714;23.274;2023-05-20T01:08:36;95050.09;;;16.12;63.14
21011;BME280;10663;42.714;23.274;2023-05-20T01:10:08;95045.50;;;16.17;63.01
21011;BME280;10663;42.714;23.274;2023-05-20T01:11:47;95048.00;;;16.27;62.75
21011;BME280;10663;42.714;23.274;2023-05-20T01:13:23;95042.06;;;16.30;62.70
21011;BME280;10663;42.714;23.274;2023-05-20T01:15:08;95049.94;;;16.22;62.80
21011;BME280;10663;42.714;23.274;2023-05-20T01:16:40;95042.97;;;16.39;62.52
21011;BME280;10663;42.714;23.274;2023-05-20T01:18:13;95044.28;;;16.42;62.06
21011;BME280;10663;42.714;23.274;2023-05-20T01:19:48;95041.00;;;16.13;62.88
21011;BME280;10663;42.714;23.274;2023-05-20T01:21:19;95045.75;;;16.34;62.46
21011;BME280;10663;42.714;23.274;2023-05-20T01:22:54;95045.78;;;16.48;62.12
21011;BME280;10663;42.714;23.274;2023-05-20T01:24:25;95044.34;;;16.56;61.46
21011;BME280;10663;42.714;23.274;2023-05-20T01:25:56;95046.91;;;16.61;61.48
21011;BME280;10663;42.714;23.274;2023-05-20T01:27:27;95043.19;;;16.62;61.26
21011;BME280;10663;42.714;23.274;2023-05-20T01:28:59;95046.47;;;16.72;61.22
21011;BME280;10663;42.714;23.274;2023-05-20T01:30:41;95041.31;;;16.76;61.35
21011;BME280;10663;42.714;23.274;2023-05-20T01:34:20;95037.38;;;16.87;60.61
21011;BME280;10663;42.714;23.274;2023-05-20T01:35:52;95038.56;;;16.95;60.25
21011;BME280;10663;42.714;23.274;2023-05-20T01:37:24;95043.44;;;16.93;60.30
21011;BME280;10663;42.714;23.274;2023-05-20T01:38:56;95033.72;;;16.97;59.81
21011;BME280;10663;42.714;23.274;2023-05-20T01:40:28;95038.50;;;17.00;60.22
21011;BME280;10663;42.714;23.274;2023-05-20T01:42:01;95039.19;;;17.05;60.53
21011;BME280;10663;42.714;23.274;2023-05-20T01:43:33;95040.97;;;17.10;59.89
21011;BME280;10663;42.714;23.274;2023-05-20T01:45:05;95048.00;;;17.06;59.79
21011;BME280;10663;42.714;23.274;2023-05-20T01:46:36;95043.66;;;17.10;60.19
21011;BME280;10663;42.714;23.274;2023-05-20T01:48:09;95038.19;;;17.15;59.65
21011;BME280;10663;42.714;23.274;2023-05-20T01:49:41;95036.44;;;17.10;59.58
21011;BME280;10663;42.714;23.274;2023-05-20T01:51:11;95034.34;;;17.07;60.08
21011;BME280;10663;42.714;23.274;2023-05-20T01:52:42;95039.00;;;17.15;60.25
21011;BME280;10663;42.714;23.274;2023-05-20T01:54:13;95027.69;;;17.18;59.55
21011;BME280;10663;42.714;23.274;2023-05-20T01:55:44;95029.59;;;17.18;59.57
21011;BME280;10663;42.714;23.274;2023-05-20T01:57:20;95040.88;;;17.15;59.78
21011;BME280;10663;42.714;23.274;2023-05-20T01:58:53;95040.25;;;17.04;59.02
21011;BME280;10663;42.714;23.274;2023-05-20T02:00:24;95040.44;;;16.94;59.24
21011;BME280;10663;42.714;23.274;2023-05-20T02:01:55;95035.78;;;16.86;59.83
21011;BME280;10663;42.714;23.274;2023-05-20T02:03:26;95036.50;;;16.92;59.54
21011;BME280;10663;42.714;23.274;2023-05-20T02:04:57;95037.09;;;16.75;60.08
21011;BME280;10663;42.714;23.274;2023-05-20T02:06:28;95033.72;;;16.83;59.94
21011;BME280;10663;42.714;23.274;2023-05-20T02:07:59;95033.91;;;16.73;60.28
21011;BME280;10663;42.714;23.274;2023-05-20T02:09:30;95034.59;;;16.78;60.40
21011;BME280;10663;42.714;23.274;2023-05-20T02:11:01;95027.88;;;16.81;60.27
21011;BME280;10663;42.714;23.274;2023-05-20T02:12:32;95029.81;;;16.75;60.12
21011;BME280;10663;42.714;23.274;2023-05-20T02:14:03;95027.94;;;16.76;60.50
21011;BME280;10663;42.714;23.274;2023-05-20T02:15:34;95021.72;;;16.48;61.06
21011;BME280;10663;42.714;23.274;2023-05-20T02:17:05;95030.22;;;16.36;61.69
21011;BME280;10663;42.714;23.274;2023-05-20T02:18:36;95021.91;;;16.38;61.88
21011;BME280;10663;42.714;23.274;2023-05-20T02:20:08;95034.94;;;16.26;62.67
21011;BME280;10663;42.714;23.274;2023-05-20T02:21:40;95034.13;;;16.25;62.75
21011;BME280;10663;42.714;23.274;2023-05-20T02:23:11;95019.28;;;16.19;62.63
21011;BME280;10663;42.714;23.274;2023-05-20T02:24:42;95019.28;;;16.19;62.82
21011;BME280;10663;42.714;23.274;2023-05-20T02:26:13;95023.84;;;16.00;63.29
21011;BME280;10663;42.714;23.274;2023-05-20T02:27:44;95017.63;;;16.04;63.04
21011;BME280;10663;42.714;23.274;2023-05-20T02:29:16;95019.66;;;15.75;63.58
21011;BME280;10663;42.714;23.274;2023-05-20T02:30:47;95025.59;;;15.72;63.67
21011;BME280;10663;42.714;23.274;2023-05-20T02:32:18;95017.44;;;15.82;63.66
21011;BME280;10663;42.714;23.274;2023-05-20T02:33:50;95020.75;;;15.74;63.96
21011;BME280;10663;42.714;23.274;2023-05-20T02:35:21;95021.19;;;15.81;63.92
21011;BME280;10663;42.714;23.274;2023-05-20T02:36:52;95021.09;;;15.86;63.80
21011;BME280;10663;42.714;23.274;2023-05-20T02:38:23;95019.31;;;15.82;63.87
21011;BME280;10663;42.714;23.274;2023-05-20T02:39:54;95019.03;;;15.83;63.99
21011;BME280;10663;42.714;23.274;2023-05-20T02:41:25;95019.22;;;15.68;64.26
21011;BME280;10663;42.714;23.274;2023-05-20T02:42:57;95026.53;;;15.81;64.46
21011;BME280;10663;42.714;23.274;2023-05-20T02:44:28;95021.03;;;15.73;64.39
21011;BME280;10663;42.714;23.274;2023-05-20T02:45:59;95020.59;;;15.65;64.44
21011;BME280;10663;42.714;23.274;2023-05-20T02:47:29;95027.22;;;15.68;64.46
21011;BME280;10663;42.714;23.274;2023-05-20T02:49:00;95026.88;;;15.56;64.89
21011;BME280;10663;42.714;23.274;2023-05-20T02:50:31;95026.38;;;15.73;64.55
21011;BME280;10663;42.714;23.274;2023-05-20T02:52:02;95013.31;;;15.71;64.49
21011;BME280;10663;42.714;23.274;2023-05-20T02:53:34;95024.28;;;15.69;64.06
21011;BME280;10663;42.714;23.274;2023-05-20T02:55:05;95021.88;;;15.68;64.56
21011;BME280;10663;42.714;23.274;2023-05-20T02:56:37;95022.47;;;15.65;64.88
21011;BME280;10663;42.714;23.274;2023-05-20T02:58:08;95025.44;;;15.63;64.75
21011;BME280;10663;42.714;23.274;2023-05-20T02:59:39;95019.22;;;15.68;64.31
21011;BME280;10663;42.714;23.274;2023-05-20T03:01:10;95019.16;;;15.73;64.54
21011;BME280;10663;42.714;23.274;2023-05-20T03:02:41;95025.59;;;15.72;64.17
21011;BME280;10663;42.714;23.274;2023-05-20T03:04:12;95018.88;;;15.75;63.68
21011;BME280;10663;42.714;23.274;2023-05-20T03:05:43;95024.66;;;15.82;63.49
21011;BME280;10663;42.714;23.274;2023-05-20T03:07:15;95026.09;;;15.74;63.32
21011;BME280;10663;42.714;23.274;2023-05-20T03:08:49;95033.91;;;15.47;64.13
21011;BME280;10663;42.714;23.274;2023-05-20T03:10:20;95036.16;;;15.58;64.16
21011;BME280;10663;42.714;23.274;2023-05-20T03:11:51;95041.03;;;15.51;65.01
21011;BME280;10663;42.714;23.274;2023-05-20T03:13:21;95040.66;;;15.63;63.65
21011;BME280;10663;42.714;23.274;2023-05-20T03:14:52;95041.53;;;15.34;64.05
21011;BME280;10663;42.714;23.274;2023-05-20T03:16:25;95046.56;;;15.36;64.93
21011;BME280;10663;42.714;23.274;2023-05-20T03:17:57;95049.31;;;15.50;64.74
21011;BME280;10663;42.714;23.274;2023-05-20T03:19:28;95051.31;;;15.39;64.92
21011;BME280;10663;42.714;23.274;2023-05-20T03:20:59;95050.59;;;15.57;64.90
21011;BME280;10663;42.714;23.274;2023-05-20T03:22:30;95051.69;;;15.56;64.18
21011;BME280;10663;42.714;23.274;2023-05-20T03:24:01;95048.06;;;15.66;64.73
21011;BME280;10663;42.714;23.274;2023-05-20T03:25:32;95049.47;;;15.82;63.29
21011;BME280;10663;42.714;23.274;2023-05-20T03:27:03;95049.75;;;15.81;63.19
21011;BME280;10663;42.714;23.274;2023-05-20T03:28:35;95045.91;;;15.68;62.92
21011;BME280;10663;42.714;23.274;2023-05-20T03:30:06;95043.91;;;15.79;63.54
21011;BME280;10663;42.714;23.274;2023-05-20T03:31:37;95040.44;;;15.97;63.21
21011;BME280;10663;42.714;23.274;2023-05-20T03:33:08;95039.13;;;15.94;62.74
21011;BME280;10663;42.714;23.274;2023-05-20T03:34:40;95041.38;;;16.06;62.44
21011;BME280;10663;42.714;23.274;2023-05-20T03:36:11;95047.66;;;16.15;62.38
21011;BME280;10663;42.714;23.274;2023-05-20T03:37:42;95050.88;;;16.31;62.13
21011;BME280;10663;42.714;23.274;2023-05-20T03:39:13;95059.63;;;16.36;61.83
21011;BME280;10663;42.714;23.274;2023-05-20T03:40:44;95052.84;;;15.88;62.73
21011;BME280;10663;42.714;23.274;2023-05-20T03:42:15;95055.31;;;15.42;65.23
21011;BME280;10663;42.714;23.274;2023-05-20T03:43:46;95059.56;;;15.43;65.21
21011;BME280;10663;42.714;23.274;2023-05-20T03:45:17;95055.88;;;15.62;65.15
21011;BME280;10663;42.714;23.274;2023-05-20T03:47:01;95059.78;;;16.07;63.10
21011;BME280;10663;42.714;23.274;2023-05-20T03:48:33;95052.94;;;16.01;63.01
21011;BME280;10663;42.714;23.274;2023-05-20T03:50:04;95055.72;;;16.29;62.15
21011;BME280;10663;42.714;23.274;2023-05-20T03:51:36;95060.03;;;16.43;61.81
21011;BME280;10663;42.714;23.274;2023-05-20T03:53:13;95061.91;;;16.62;61.49
21011;BME280;10663;42.714;23.274;2023-05-20T03:54:45;95060.53;;;16.64;61.49
21011;BME280;10663;42.714;23.274;2023-05-20T03:56:16;95064.81;;;16.79;60.97
21011;BME280;10663;42.714;23.274;2023-05-20T03:57:47;95069.53;;;16.68;61.59
21011;BME280;10663;42.714;23.274;2023-05-20T03:59:19;95068.31;;;16.28;62.61
21011;BME280;10663;42.714;23.274;2023-05-20T04:00:51;95068.84;;;15.93;63.87
21011;BME280;10663;42.714;23.274;2023-05-20T04:02:22;95066.50;;;16.05;63.80
21011;BME280;10663;42.714;23.274;2023-05-20T04:03:53;95063.63;;;16.20;62.59
21011;BME280;10663;42.714;23.274;2023-05-20T04:05:24;95073.78;;;16.37;61.76
21011;BME280;10663;42.714;23.274;2023-05-20T04:06:55;95073.41;;;16.43;61.72
21011;BME280;10663;42.714;23.274;2023-05-20T04:08:26;95080.84;;;16.46;61.70
21011;BME280;10663;42.714;23.274;2023-05-20T04:09:57;95077.94;;;16.43;61.59
21011;BME280;10663;42.714;23.274;2023-05-20T04:11:28;95078.97;;;16.47;61.65
21011;BME280;10663;42.714;23.274;2023-05-20T04:12:59;95084.22;;;16.52;61.61
21011;BME280;10663;42.714;23.274;2023-05-20T04:14:32;95084.13;;;16.57;60.99
21011;BME280;10663;42.714;23.274;2023-05-20T04:16:05;95082.44;;;16.48;61.17
21011;BME280;10663;42.714;23.274;2023-05-20T04:17:36;95084.06;;;16.11;62.33
21011;BME280;10663;42.714;23.274;2023-05-20T04:19:08;95080.78;;;15.77;63.46
21011;BME280;10663;42.714;23.274;2023-05-20T04:20:39;95086.22;;;16.28;62.39
21011;BME280;10663;42.714;23.274;2023-05-20T04:22:14;95084.88;;;16.44;62.24
21011;BME280;10663;42.714;23.274;2023-05-20T04:23:45;95081.13;;;16.45;62.29
21011;BME280;10663;42.714;23.274;2023-05-20T04:25:16;95079.53;;;16.63;61.97
21011;BME280;10663;42.714;23.274;2023-05-20T04:26:47;95072.72;;;16.70;61.64
21011;BME280;10663;42.714;23.274;2023-05-20T04:28:18;95075.63;;;16.74;61.73
21011;BME280;10663;42.714;23.274;2023-05-20T04:29:53;95073.56;;;16.98;60.84
21011;BME280;10663;42.714;23.274;2023-05-20T04:31:25;95078.22;;;16.93;60.85
21011;BME280;10663;42.714;23.274;2023-05-20T04:32:56;95078.69;;;16.95;60.97
21011;BME280;10663;42.714;23.274;2023-05-20T04:34:30;95077.25;;;17.16;60.74
21011;BME280;10663;42.714;23.274;2023-05-20T04:36:09;95081.91;;;17.24;60.72
21011;BME280;10663;42.714;23.274;2023-05-20T04:37:41;95078.72;;;17.22;60.58
21011;BME280;10663;42.714;23.274;2023-05-20T04:39:15;95078.34;;;17.15;60.32
21011;BME280;10663;42.714;23.274;2023-05-20T04:40:46;95082.91;;;17.14;60.53
21011;BME280;10663;42.714;23.274;2023-05-20T04:42:17;95086.66;;;17.13;60.64
21011;BME280;10663;42.714;23.274;2023-05-20T04:43:48;95085.25;;;16.89;61.77
21011;BME280;10663;42.714;23.274;2023-05-20T04:45:20;95077.44;;;17.06;61.65
21011;BME280;10663;42.714;23.274;2023-05-20T04:46:52;95084.47;;;17.15;61.52
21011;BME280;10663;42.714;23.274;2023-05-20T04:48:23;95082.81;;;17.19;60.93
21011;BME280;10663;42.714;23.274;2023-05-20T04:49:55;95082.81;;;17.61;60.00
21011;BME280;10663;42.714;23.274;2023-05-20T04:51:29;95080.34;;;17.64;59.79
21011;BME280;10663;42.714;23.274;2023-05-20T04:53:02;95092.13;;;17.77;59.32
21011;BME280;10663;42.714;23.274;2023-05-20T04:54:34;95093.50;;;17.61;59.88
21011;BME280;10663;42.714;23.274;2023-05-20T04:56:05;95082.34;;;17.72;59.62
21011;BME280;10663;42.714;23.274;2023-05-20T04:57:37;95081.03;;;17.83;59.02
21011;BME280;10663;42.714;23.274;2023-05-20T04:59:14;95085.41;;;17.79;59.06
21011;BME280;10663;42.714;23.274;2023-05-20T05:00:45;95084.69;;;17.60;59.62
21011;BME280;10663;42.714;23.274;2023-05-20T05:02:16;95077.72;;;17.86;59.50
21011;BME280;10663;42.714;23.274;2023-05-20T05:03:47;95073.66;;;18.03;58.53
21011;BME280;10663;42.714;23.274;2023-05-20T05:05:18;95077.88;;;18.17;59.13
21011;BME280;10663;42.714;23.274;2023-05-20T05:06:49;95072.44;;;18.31;57.88
21011;BME280;10663;42.714;23.274;2023-05-20T05:08:20;95073.09;;;17.78;59.14
21011;BME280;10663;42.714;23.274;2023-05-20T05:09:55;95086.63;;;18.09;58.70
21011;BME280;10663;42.714;23.274;2023-05-20T05:11:26;95083.78;;;18.28;58.07
21011;BME280;10663;42.714;23.274;2023-05-20T05:12:57;95079.31;;;18.59;57.45
21011;BME280;10663;42.714;23.274;2023-05-20T05:14:28;95077.06;;;18.75;56.66
21011;BME280;10663;42.714;23.274;2023-05-20T05:16:00;95084.31;;;18.75;56.90
21011;BME280;10663;42.714;23.274;2023-05-20T05:17:33;95072.78;;;18.74;57.15
21011;BME280;10663;42.714;23.274;2023-05-20T05:19:04;95082.69;;;18.96;56.53
21011;BME280;10663;42.714;23.274;2023-05-20T05:20:40;95074.28;;;18.89;56.25
21011;BME280;10663;42.714;23.274;2023-05-20T05:22:11;95077.31;;;18.96;56.59
21011;BME280;10663;42.714;23.274;2023-05-20T05:23:43;95077.78;;;18.67;56.93
21011;BME280;10663;42.714;23.274;2023-05-20T05:25:16;95072.53;;;18.84;56.93
21011;BME280;10663;42.714;23.274;2023-05-20T05:26:47;95072.69;;;19.10;56.78
21011;BME280;10663;42.714;23.274;2023-05-20T05:28:18;95075.81;;;19.12;57.24
21011;BME280;10663;42.714;23.274;2023-05-20T05:29:49;95076.34;;;19.23;56.69
21011;BME280;10663;42.714;23.274;2023-05-20T05:31:21;95069.00;;;19.37;56.26
21011;BME280;10663;42.714;23.274;2023-05-20T05:32:52;95074.00;;;19.61;55.44
21011;BME280;10663;42.714;23.274;2023-05-20T05:34:23;95069.03;;;19.46;56.04
21011;BME280;10663;42.714;23.274;2023-05-20T05:35:54;95069.59;;;19.73;55.60
21011;BME280;10663;42.714;23.274;2023-05-20T05:37:28;95061.09;;;19.89;55.52
21011;BME280;10663;42.714;23.274;2023-05-20T05:38:59;95060.97;;;20.11;54.50
21011;BME280;10663;42.714;23.274;2023-05-20T05:40:30;95069.31;;;19.75;54.73
21011;BME280;10663;42.714;23.274;2023-05-20T05:42:00;95066.00;;;20.12;53.66
21011;BME280;10663;42.714;23.274;2023-05-20T05:43:31;95067.16;;;20.20;53.98
21011;BME280;10663;42.714;23.274;2023-05-20T05:45:03;95066.97;;;20.25;53.75
21011;BME280;10663;42.714;23.274;2023-05-20T05:46:35;95067.66;;;20.39;53.40
21011;BME280;10663;42.714;23.274;2023-05-20T05:48:06;95068.88;;;20.25;53.26
21011;BME280;10663;42.714;23.274;2023-05-20T05:49:37;95071.72;;;20.28;53.78
21011;BME280;10663;42.714;23.274;2023-05-20T05:51:08;95072.38;;;20.42;52.85
21011;BME280;10663;42.714;23.274;2023-05-20T05:52:40;95069.34;;;20.09;53.02
21011;BME280;10663;42.714;23.274;2023-05-20T05:54:13;95069.03;;;20.28;53.35
21011;BME280;10663;42.714;23.274;2023-05-20T05:55:46;95066.97;;;20.60;52.83
21011;BME280;10663;42.714;23.274;2023-05-20T05:57:18;95062.09;;;20.62;52.09
21011;BME280;10663;42.714;23.274;2023-05-20T05:58:48;95064.25;;;20.77;51.88
21011;BME280;10663;42.714;23.274;2023-05-20T06:00:20;95067.72;;;20.86;51.17
21011;BME280;10663;42.714;23.274;2023-05-20T06:01:51;95066.50;;;20.83;51.47
21011;BME280;10663;42.714;23.274;2023-05-20T06:03:23;95059.69;;;20.17;53.19
21011;BME280;10663;42.714;23.274;2023-05-20T06:04:54;95056.03;;;20.13;53.37
21011;BME280;10663;42.714;23.274;2023-05-20T06:06:25;95060.19;;;20.10;53.82
21011;BME280;10663;42.714;23.274;2023-05-20T06:07:56;95056.06;;;20.65;51.57
21011;BME280;10663;42.714;23.274;2023-05-20T06:09:27;95053.13;;;20.96;52.06
21011;BME280;10663;42.714;23.274;2023-05-20T06:10:59;95062.38;;;20.77;51.93
21011;BME280;10663;42.714;23.274;2023-05-20T06:12:30;95051.97;;;21.22;51.07
21011;BME280;10663;42.714;23.274;2023-05-20T06:14:01;95049.47;;;21.09;50.21
21011;BME280;10663;42.714;23.274;2023-05-20T06:15:32;95054.03;;;20.36;51.98
21011;BME280;10663;42.714;23.274;2023-05-20T06:17:03;95048.66;;;21.17;50.83
21011;BME280;10663;42.714;23.274;2023-05-20T06:18:35;95049.25;;;21.60;49.61
21011;BME280;10663;42.714;23.274;2023-05-20T06:20:08;95047.09;;;21.83;48.20
21011;BME280;10663;42.714;23.274;2023-05-20T06:21:39;95054.69;;;21.52;48.87
21011;BME280;10663;42.714;23.274;2023-05-20T06:23:11;95048.16;;;21.23;48.88
21011;BME280;10663;42.714;23.274;2023-05-20T06:24:50;95049.41;;;21.64;47.77
21011;BME280;10663;42.714;23.274;2023-05-20T06:26:22;95053.50;;;21.99;46.81
21011;BME280;10663;42.714;23.274;2023-05-20T06:27:52;95053.63;;;21.44;48.12
21011;BME280;10663;42.714;23.274;2023-05-20T06:29:24;95052.59;;;21.66;47.84
21011;BME280;10663;42.714;23.274;2023-05-20T06:30:55;95054.56;;;22.07;46.47
21011;BME280;10663;42.714;23.274;2023-05-20T06:32:26;95035.28;;;22.17;45.83
21011;BME280;10663;42.714;23.274;2023-05-20T06:33:58;95044.75;;;22.23;46.29
21011;BME280;10663;42.714;23.274;2023-05-20T06:35:30;95032.91;;;22.36;45.76
21011;BME280;10663;42.714;23.274;2023-05-20T06:37:01;95024.09;;;22.48;45.21
21011;BME280;10663;42.714;23.274;2023-05-20T06:38:32;95029.50;;;22.60;44.33
21011;BME280;10663;42.714;23.274;2023-05-20T06:40:03;95030.94;;;22.46;43.78
21011;BME280;10663;42.714;23.274;2023-05-20T06:41:34;95029.00;;;21.54;45.95
21011;BME280;10663;42.714;23.274;2023-05-20T06:43:12;95023.66;;;21.96;45.49
21011;BME280;10663;42.714;23.274;2023-05-20T06:45:07;95026.69;;;21.94;45.10
21011;BME280;10663;42.714;23.274;2023-05-20T06:46:46;95025.63;;;21.66;45.53
21011;BME280;10663;42.714;23.274;2023-05-20T06:48:19;95020.28;;;22.08;45.04
21011;BME280;10663;42.714;23.274;2023-05-20T06:49:50;95015.22;;;22.27;44.56
21011;BME280;10663;42.714;23.274;2023-05-20T06:51:21;95015.69;;;22.62;43.39
21011;BME280;10663;42.714;23.274;2023-05-20T06:52:53;95015.50;;;22.67;43.81
21011;BME280;10663;42.714;23.274;2023-05-20T06:54:25;95009.97;;;22.43;43.32
21011;BME280;10663;42.714;23.274;2023-05-20T06:55:56;95018.22;;;22.79;43.36
21011;BME280;10663;42.714;23.274;2023-05-20T06:57:27;95024.44;;;22.80;43.34
21011;BME280;10663;42.714;23.274;2023-05-20T06:58:57;95022.03;;;23.35;41.78
21011;BME280;10663;42.714;23.274;2023-05-20T07:00:29;95026.31;;;23.24;41.86
21011;BME280;10663;42.714;23.274;2023-05-20T07:02:01;95027.53;;;23.02;41.49
21011;BME280;10663;42.714;23.274;2023-05-20T07:03:32;95029.59;;;23.30;41.53
21011;BME280;10663;42.714;23.274;2023-05-20T07:05:04;95021.69;;;23.25;40.94
21011;BME280;10663;42.714;23.274;2023-05-20T07:06:35;95022.19;;;23.51;40.92
21011;BME280;10663;42.714;23.274;2023-05-20T07:08:06;95027.34;;;23.68;40.14
21011;BME280;10663;42.714;23.274;2023-05-20T07:09:37;95022.25;;;23.42;40.81
21011;BME280;10663;42.714;23.274;2023-05-20T07:11:10;95021.03;;;23.28;41.11
21011;BME280;10663;42.714;23.274;2023-05-20T07:12:41;95011.41;;;23.06;41.09
21011;BME280;10663;42.714;23.274;2023-05-20T07:14:12;95011.47;;;23.30;40.48
21011;BME280;10663;42.714;23.274;2023-05-20T07:15:45;95000.09;;;23.61;40.35
21011;BME280;10663;42.714;23.274;2023-05-20T07:17:17;95004.13;;;23.43;40.43
21011;BME280;10663;42.714;23.274;2023-05-20T07:18:49;95009.31;;;23.60;40.41
21011;BME280;10663;42.714;23.274;2023-05-20T07:20:21;95023.16;;;23.34;40.62
21011;BME280;10663;42.714;23.274;2023-05-20T07:21:52;95016.56;;;23.56;40.04
21011;BME280;10663;42.714;23.274;2023-05-20T07:23:45;95006.25;;;23.86;39.78
21011;BME280;10663;42.714;23.274;2023-05-20T07:25:15;95011.00;;;23.89;39.29
21011;BME280;10663;42.714;23.274;2023-05-20T07:26:47;95011.50;;;24.07;38.69
21011;BME280;10663;42.714;23.274;2023-05-20T07:28:19;95012.38;;;23.59;39.24
21011;BME280;10663;42.714;23.274;2023-05-20T07:29:50;95007.13;;;22.60;40.04
21011;BME280;10663;42.714;23.274;2023-05-20T07:31:21;95011.38;;;22.49;40.71
21011;BME280;10663;42.714;23.274;2023-05-20T07:32:54;95004.63;;;22.88;40.87
21011;BME280;10663;42.714;23.274;2023-05-20T07:34:24;95007.41;;;23.61;39.14
21011;BME280;10663;42.714;23.274;2023-05-20T07:35:56;94999.50;;;23.92;39.13
21011;BME280;10663;42.714;23.274;2023-05-20T07:37:27;95009.44;;;23.64;39.46
21011;BME280;10663;42.714;23.274;2023-05-20T07:38:59;95005.00;;;23.96;38.44
21011;BME280;10663;42.714;23.274;2023-05-20T07:40:30;95005.38;;;23.82;38.46
21011;BME280;10663;42.714;23.274;2023-05-20T07:42:01;95009.06;;;24.02;37.97
21011;BME280;10663;42.714;23.274;2023-05-20T07:43:32;95004.69;;;23.85;38.28
21011;BME280;10663;42.714;23.274;2023-05-20T07:45:04;95004.84;;;23.52;39.11
21011;BME280;10663;42.714;23.274;2023-05-20T07:46:37;95004.13;;;23.79;38.10
21011;BME280;10663;42.714;23.274;2023-05-20T07:48:09;95003.13;;;23.47;39.60
21011;BME280;10663;42.714;23.274;2023-05-20T07:49:40;95005.03;;;23.71;39.27
21011;BME280;10663;42.714;23.274;2023-05-20T07:51:11;95001.34;;;24.04;37.90
21011;BME280;10663;42.714;23.274;2023-05-20T07:52:42;95004.72;;;24.13;38.07
21011;BME280;10663;42.714;23.274;2023-05-20T07:54:14;95006.75;;;24.16;37.94
21011;BME280;10663;42.714;23.274;2023-05-20T07:55:45;94996.72;;;24.29;36.99
21011;BME280;10663;42.714;23.274;2023-05-20T07:57:16;94999.75;;;24.27;37.20
21011;BME280;10663;42.714;23.274;2023-05-20T07:58:52;94997.94;;;23.42;37.95
21011;BME280;10663;42.714;23.274;2023-05-20T08:00:24;94999.69;;;22.57;39.67
21011;BME280;10663;42.714;23.274;2023-05-20T08:01:55;94998.91;;;22.56;39.65
21011;BME280;10663;42.714;23.274;2023-05-20T08:03:26;95005.44;;;22.88;40.00